| time (UTC) | temp F | wind direction | speed MPH | gust MPH | rain 1hr in | rain 24hr in | rain mn in | humidity % | barometer mb |
| 20260507231535 | 63 | 315 | 1.0 | 9.0 | 0.00 | 0.41 | 0.36 | 29 | 1008.3 |
| 20260507230034 | 63 | 309 | 1.0 | 5.0 | 0.00 | 0.41 | 0.36 | 35 | 1008.3 |
| 20260507224536 | 63 | 0 | 0.0 | 5.0 | 0.00 | 0.41 | 0.36 | 37 | 1008.2 |
| 20260507223037 | 63 | 0 | 0.0 | 4.0 | 0.00 | 0.41 | 0.36 | 37 | 1008.2 |
| 20260507221536 | 64 | 0 | 0.0 | 8.0 | 0.00 | 0.41 | 0.36 | 30 | 1008.3 |
| 20260507220036 | 64 | 0 | 2.0 | 9.0 | 0.00 | 0.41 | 0.36 | 30 | 1008.3 |
| 20260507214545 | 64 | 301 | 0.0 | 4.0 | 0.00 | 0.41 | 0.36 | 36 | 1008.4 |
| 20260507213035 | 64 | 0 | 0.0 | 4.0 | 0.00 | 0.41 | 0.36 | 33 | 1008.4 |
| 20260507211537 | 64 | 0 | 2.0 | 8.0 | 0.00 | 0.41 | 0.36 | 27 | 1008.5 |
| 20260507210048 | 64 | 0 | 0.0 | 8.0 | 0.00 | 0.41 | 0.36 | 30 | 1008.2 |
| 20260507204534 | 64 | 281 | 1.0 | 8.0 | 0.00 | 0.41 | 0.36 | 29 | 1008.1 |
| 20260507203037 | 64 | 314 | 4.0 | 16.0 | 0.00 | 0.41 | 0.36 | 30 | 1008.3 |
| 20260507201542 | 64 | 0 | 0.0 | 9.0 | 0.00 | 0.41 | 0.36 | 36 | 1008.3 |
| 20260507200038 | 64 | 0 | 0.0 | 7.0 | 0.00 | 0.41 | 0.36 | 33 | 1008.5 |
| 20260507194603 | 64 | 320 | 1.0 | 9.0 | 0.00 | 0.41 | 0.36 | 30 | 1008.7 |
| 20260507193035 | 64 | 306 | 1.0 | 6.0 | 0.00 | 0.41 | 0.36 | 29 | 1008.8 |
| 20260507191541 | 64 | 312 | 1.0 | 6.0 | 0.00 | 0.41 | 0.36 | 38 | 1009.2 |
| 20260507190034 | 63 | 319 | 3.0 | 13.0 | 0.00 | 0.41 | 0.36 | 28 | 1009.4 |
| 20260507184539 | 64 | 323 | 3.0 | 10.0 | 0.00 | 0.41 | 0.36 | 31 | 1009.4 |
| 20260507183037 | 63 | 0 | 1.0 | 11.0 | 0.00 | 0.41 | 0.36 | 36 | 1009.5 |
| 20260507181535 | 64 | 321 | 2.0 | 8.0 | 0.00 | 0.41 | 0.36 | 32 | 1009.5 |
| 20260507180038 | 62 | 327 | 1.0 | 14.0 | 0.00 | 0.41 | 0.36 | 38 | 1009.7 |
| 20260507174544 | 62 | 304 | 3.0 | 9.0 | 0.00 | 0.41 | 0.36 | 33 | 1009.9 |
| 20260507173039 | 63 | 304 | 2.0 | 8.0 | 0.00 | 0.41 | 0.36 | 35 | 1010.0 |
| 20260507171540 | 62 | 292 | 1.0 | 12.0 | 0.00 | 0.41 | 0.36 | 36 | 1010.3 |
| 20260507170039 | 62 | 0 | 1.0 | 10.0 | 0.00 | 0.41 | 0.36 | 40 | 1010.6 |
| 20260507164533 | 62 | 327 | 1.0 | 9.0 | 0.00 | 0.42 | 0.36 | 46 | 1010.8 |
| 20260507163035 | 61 | 0 | 0.0 | 6.0 | 0.00 | 0.42 | 0.36 | 44 | 1010.9 |
| 20260507161539 | 61 | 32 | 1.0 | 8.0 | 0.00 | 0.42 | 0.36 | 48 | 1011.2 |
| 20260507160037 | 60 | 0 | 1.0 | 5.0 | 0.00 | 0.42 | 0.36 | 56 | 1011.3 |
| 20260507154537 | 59 | 314 | 1.0 | 8.0 | 0.00 | 0.42 | 0.36 | 58 | 1011.5 |
| 20260507153040 | 58 | 329 | 0.0 | 8.0 | 0.00 | 0.42 | 0.36 | 52 | 1011.8 |
| 20260507151536 | 58 | 307 | 2.0 | 9.0 | 0.00 | 0.42 | 0.36 | 53 | 1011.9 |
| 20260507150038 | 56 | 319 | 3.0 | 8.0 | 0.00 | 0.42 | 0.36 | 58 | 1012.1 |
| 20260507144535 | 56 | 313 | 3.0 | 8.0 | 0.00 | 0.42 | 0.36 | 58 | 1012.1 |
| 20260507143037 | 56 | 279 | 3.0 | 9.0 | 0.00 | 0.42 | 0.36 | 63 | 1012.3 |
| 20260507141542 | 54 | 275 | 3.0 | 8.0 | 0.00 | 0.42 | 0.36 | 75 | 1012.3 |
| 20260507140039 | 53 | 309 | 1.0 | 4.0 | 0.00 | 0.42 | 0.36 | 71 | 1012.5 |
| 20260507134537 | 53 | 0 | 0.0 | 6.0 | 0.00 | 0.42 | 0.36 | 73 | 1012.5 |
| 20260507133036 | 53 | 0 | 1.0 | 8.0 | 0.00 | 0.42 | 0.36 | 77 | 1012.4 |
| 20260507131544 | 53 | 0 | 0.0 | 4.0 | 0.00 | 0.42 | 0.36 | 88 | 1012.5 |
| 20260507130039 | 52 | 311 | 1.0 | 5.0 | 0.00 | 0.42 | 0.36 | 83 | 1012.3 |
| 20260507124535 | 52 | 0 | 0.0 | 4.0 | 0.00 | 0.42 | 0.36 | 92 | 1012.4 |
| 20260507123037 | 52 | 0 | 1.0 | 5.0 | 0.00 | 0.42 | 0.36 | 91 | 1012.4 |
| 20260507121533 | 52 | 0 | 0.0 | 1.0 | 0.00 | 0.42 | 0.36 | 95 | 1012.3 |
| 20260507120035 | 51 | 0 | 0.0 | 0.0 | 0.00 | 0.42 | 0.36 | 96 | 1012.3 |
| 20260507114541 | 51 | 0 | 0.0 | 2.0 | 0.00 | 0.42 | 0.36 | 97 | 1012.3 |
| 20260507113036 | 51 | 0 | 0.0 | 2.0 | 0.00 | 0.42 | 0.36 | 98 | 1012.3 |
| 20260507111536 | 50 | 0 | 0.0 | 2.0 | 0.00 | 0.42 | 0.36 | 100 | 1012.1 |
| 20260507110033 | 50 | 0 | 0.0 | 0.0 | 0.00 | 0.42 | 0.36 | 100 | 1011.9 |
| 20260507104538 | 50 | 0 | 0.0 | 0.0 | 0.00 | 0.42 | 0.36 | 100 | 1011.7 |
| 20260507103038 | 50 | 0 | 0.0 | 0.0 | 0.01 | 0.42 | 0.36 | 100 | 1011.5 |
| 20260507101537 | 50 | 0 | 0.0 | 0.0 | 0.01 | 0.42 | 0.36 | 99 | 1011.2 |
| 20260507100040 | 50 | 0 | 0.0 | 0.0 | 0.02 | 0.42 | 0.36 | 99 | 1011.1 |
| 20260507094536 | 50 | 0 | 0.0 | 0.0 | 0.02 | 0.42 | 0.36 | 98 | 1011.2 |
| 20260507093033 | 50 | 0 | 0.0 | 0.0 | 0.01 | 0.41 | 0.35 | 98 | 1011.1 |
| 20260507091538 | 50 | 0 | 0.0 | 2.0 | 0.01 | 0.41 | 0.35 | 97 | 1011.1 |
| 20260507090036 | 50 | 0 | 0.0 | 5.0 | 0.00 | 0.40 | 0.34 | 96 | 1010.8 |
| 20260507084536 | 50 | 0 | 0.0 | 5.0 | 0.00 | 0.40 | 0.34 | 96 | 1011.0 |
| 20260507083036 | 50 | 304 | 0.0 | 5.0 | 0.00 | 0.40 | 0.34 | 96 | 1010.6 |
| 20260507081536 | 50 | 0 | 0.0 | 6.0 | 0.00 | 0.40 | 0.34 | 96 | 1010.9 |
| 20260507080039 | 50 | 0 | 2.0 | 8.0 | 0.00 | 0.40 | 0.34 | 95 | 1010.8 |
| 20260507074536 | 50 | 327 | 4.0 | 9.0 | 0.00 | 0.40 | 0.34 | 95 | 1011.1 |
| 20260507073037 | 51 | 305 | 3.0 | 9.0 | 0.00 | 0.40 | 0.34 | 95 | 1011.1 |
| 20260507071559 | 51 | 312 | 2.0 | 9.0 | 0.01 | 0.40 | 0.34 | 96 | 1011.3 |
| 20260507070037 | 51 | 325 | 3.0 | 11.0 | 0.05 | 0.40 | 0.34 | 97 | 1011.2 |
| 20260507064536 | 52 | 325 | 2.0 | 11.0 | 0.27 | 0.40 | 0.34 | 99 | 1011.1 |
| 20260507063042 | 53 | 321 | 2.0 | 6.0 | 0.30 | 0.40 | 0.34 | 99 | 1010.6 |
| 20260507061538 | 53 | 0 | 1.0 | 4.0 | 0.30 | 0.39 | 0.33 | 98 | 1011.2 |
| 20260507060038 | 54 | 325 | 1.0 | 9.0 | 0.27 | 0.35 | 0.29 | 97 | 1010.8 |
| 20260507054535 | 55 | 319 | 1.0 | 8.0 | 0.05 | 0.12 | 0.06 | 95 | 1010.5 |
| 20260507053104 | 56 | 0 | 0.0 | 5.0 | 0.03 | 0.10 | 0.04 | 95 | 1010.0 |
| 20260507051542 | 56 | 0 | 0.0 | 5.0 | 0.02 | 0.09 | 0.03 | 94 | 1010.1 |
| 20260507050037 | 56 | 313 | 1.0 | 4.0 | 0.02 | 0.08 | 0.02 | 95 | 1009.9 |
| 20260507044534 | 57 | 0 | 0.0 | 6.0 | 0.01 | 0.07 | 0.01 | 95 | 1009.6 |
| 20260507043037 | 57 | 0 | 0.0 | 8.0 | 0.03 | 0.07 | 0.01 | 94 | 1009.8 |
| 20260507041535 | 58 | 0 | 1.0 | 9.0 | 0.03 | 0.07 | 0.01 | 94 | 1010.1 |
| 20260507040032 | 60 | 319 | 3.0 | 11.0 | 0.03 | 0.06 | 0.00 | 92 | 1009.8 |
| 20260507034540 | 63 | 329 | 0.0 | 4.0 | 0.05 | 0.06 | 0.06 | 94 | 1009.7 |
| 20260507033044 | 64 | 0 | 0.0 | 3.0 | 0.03 | 0.04 | 0.04 | 93 | 1009.7 |
| 20260507031535 | 65 | 0 | 0.0 | 10.0 | 0.03 | 0.04 | 0.04 | 91 | 1009.0 |
| 20260507030033 | 66 | 0 | 0.0 | 4.0 | 0.02 | 0.03 | 0.03 | 88 | 1009.0 |
| 20260507024536 | 66 | 0 | 0.0 | 0.0 | 0.00 | 0.01 | 0.01 | 87 | 1009.3 |
| 20260507023037 | 65 | 0 | 0.0 | 0.0 | 0.00 | 0.01 | 0.01 | 87 | 1008.9 |
| 20260507021533 | 65 | 0 | 0.0 | 0.0 | 0.00 | 0.01 | 0.01 | 86 | 1009.1 |
| 20260507020035 | 66 | 0 | 0.0 | 0.0 | 0.00 | 0.01 | 0.01 | 86 | 1009.1 |
| 20260507014537 | 66 | 0 | 0.0 | 0.0 | 0.00 | 0.01 | 0.01 | 85 | 1008.8 |
| 20260507013036 | 66 | 0 | 0.0 | 0.0 | 0.00 | 0.01 | 0.01 | 84 | 1009.1 |
| 20260507011539 | 66 | 0 | 0.0 | 2.0 | 0.00 | 0.01 | 0.01 | 84 | 1008.9 |
| 20260507010037 | 66 | 0 | 0.0 | 1.0 | 0.00 | 0.01 | 0.01 | 85 | 1009.1 |
| 20260507004537 | 66 | 0 | 0.0 | 0.0 | 0.00 | 0.01 | 0.01 | 84 | 1008.8 |
| 20260507003032 | 66 | 0 | 0.0 | 0.0 | 0.00 | 0.01 | 0.01 | 82 | 1008.6 |
| 20260507001546 | 67 | 0 | 0.0 | 0.0 | 0.00 | 0.01 | 0.01 | 81 | 1008.5 |
| 20260507000037 | 67 | 0 | 0.0 | 1.0 | 0.00 | 0.01 | 0.01 | 81 | 1008.5 |
| 20260506234536 | 68 | 0 | 0.0 | 0.0 | 0.00 | 0.01 | 0.01 | 80 | 1008.5 |
| 20260506233035 | 68 | 0 | 0.0 | 2.0 | 0.00 | 0.01 | 0.01 | 79 | 1008.2 |